Noatak Airport

About
Name: Noatak Airport
Identifier:  WTK/PAWN
Owner:  Alaska DOT&PF - Northern Region
Public/Private:  Public
Local Time:  22. Aug 21:16 AKDT
Description: Noatak Airport is a state-owned public-use airport located one nautical mile southwest of the central business district of Noatak, in the Northwest Arctic Borough of the U.S. state in Alaska.
Source: Wikipedia
Location
Runways
Identifier Length (m/ft) Surface
1/19 4,000/4,000 Gravel
Flights per Day
1 flights
Distance: 77km (47mi)
Punctuality
66% (0 flights per day delayed)
Delay Average: 317 minutes
Current Weather
 11 C (Humidity: 57%)
  11kt (20km/h / 12mph) from 340°
  16km (10 mi.)
 
 METAR PAWN 230456Z AUTO 34011KT 10SM CLR 11/03 A2976 RMK AO2 SLP088 T01060033

Current Flights

Departures
Number Departure To Airline
Arrivals
Number Arrival From Airline
 8E682 17:05 +252  Kotzebue Bering Air

Current Delays

Departures
N/A
Arrivals
N/A

Destinations

Top Destinations
Airport Flights
per week
Seats
per week
  Kotzebue (OTZ) 2 - 0 0

Airlines & Planes

Top Airlines
Airline Flights
per Day
Seats
per Day
Bering Air 0 -
Top Plane Types
Model Flights Seats
Piper PA-31-350 0.4/day - 0